Time;durP1;ratioP1;P1;durP2;ratioP2;P2;SDS_P1;SDS_P2;PMS_P1;PMS_P2;Temp;Humidity;BMP_temperature;BMP_pressure;BME280_temperature;BME280_humidity;BME280_pressure;Samples;Min_cycle;Max_cycle;Signal;HPM_P1;HPM_P2
2022/10/17 00:00:07;;;;;;;4.68;2.45;;;17.20;99.90;;;;;;4140575;28;20038;-68
2022/10/17 00:02:07;;;;;;;2.60;2.40;;;17.20;99.90;;;;;;4138479;28;20507;-68
2022/10/17 00:04:08;;;;;;;6.13;2.55;;;17.20;99.90;;;;;;4136704;28;20084;-68
2022/10/17 00:06:12;;;;;;;3.15;2.17;;;17.20;99.90;;;;;;4133065;28;20504;-68
2022/10/17 00:08:14;;;;;;;4.10;2.50;;;17.20;99.90;;;;;;4146124;28;20032;-67
2022/10/17 00:10:15;;;;;;;4.88;2.70;;;17.10;99.90;;;;;;4127897;28;20034;-68
2022/10/17 00:12:16;;;;;;;4.32;2.50;;;17.20;99.90;;;;;;4141112;28;20083;-68
2022/10/17 00:14:16;;;;;;;3.55;2.90;;;17.10;99.90;;;;;;4138828;28;20062;-68
2022/10/17 00:16:25;;;;;;;3.80;2.83;;;17.10;99.90;;;;;;4126724;28;20488;-68
2022/10/17 00:18:26;;;;;;;5.55;2.60;;;17.10;99.90;;;;;;4136557;28;20050;-68
2022/10/17 00:20:29;;;;;;;3.55;2.65;;;17.10;99.90;;;;;;4159680;28;20037;-67
2022/10/17 00:22:29;;;;;;;;;;;17.10;99.90;;;;;;4140618;28;20030;-67
2022/10/17 00:24:30;;;;;;;6.80;3.05;;;17.10;99.90;;;;;;4136597;28;20398;-68
2022/10/17 00:26:31;;;;;;;3.70;2.92;;;17.10;99.90;;;;;;4151301;28;20109;-68
2022/10/17 00:28:32;;;;;;;4.70;2.67;;;17.10;99.90;;;;;;4136241;28;20503;-68
2022/10/17 00:30:33;;;;;;;4.35;2.85;;;17.10;99.90;;;;;;4143152;28;20045;-68
2022/10/17 00:32:33;;;;;;;5.57;3.03;;;17.00;99.90;;;;;;4140302;28;20034;-68
2022/10/17 00:34:34;;;;;;;4.65;2.90;;;17.00;99.90;;;;;;4129537;28;20069;-69
2022/10/17 00:36:34;;;;;;;3.58;2.92;;;17.00;99.90;;;;;;4135538;28;20038;-69
2022/10/17 00:38:36;;;;;;;3.30;2.70;;;17.00;99.90;;;;;;4141435;28;20046;-68
2022/10/17 00:40:36;;;;;;;4.03;3.15;;;17.00;99.90;;;;;;4137974;28;20027;-67
2022/10/17 00:42:37;;;;;;;5.07;2.97;;;17.00;99.90;;;;;;4135444;28;20065;-67
2022/10/17 00:44:40;;;;;;;3.83;3.15;;;17.00;99.90;;;;;;4152444;28;20491;-68
2022/10/17 00:46:41;;;;;;;4.10;3.15;;;17.00;99.90;;;;;;4152716;28;20029;-68
2022/10/17 00:48:42;;;;;;;5.80;3.50;;;17.00;99.90;;;;;;4136008;28;20104;-68
2022/10/17 00:50:47;;;;;;;4.95;3.25;;;17.00;99.90;;;;;;4137054;28;20502;-68
2022/10/17 00:52:48;;;;;;;4.55;2.97;;;17.00;99.90;;;;;;4152983;28;20045;-68
2022/10/17 00:54:55;;;;;;;8.93;3.75;;;17.00;99.90;;;;;;4140055;28;20533;-67
2022/10/17 00:56:56;;;;;;;4.70;3.13;;;17.00;99.90;;;;;;4150622;28;20030;-67
2022/10/17 00:58:57;;;;;;;3.88;2.97;;;17.00;99.90;;;;;;4136847;28;20513;-67
2022/10/17 01:00:57;;;;;;;4.10;3.38;;;17.00;99.90;;;;;;4140733;28;20117;-67
2022/10/17 01:02:58;;;;;;;6.20;3.40;;;17.00;99.90;;;;;;4144591;28;20033;-68
2022/10/17 01:04:59;;;;;;;4.63;3.28;;;17.00;99.90;;;;;;4141984;28;20026;-68
2022/10/17 01:06:59;;;;;;;4.13;3.13;;;17.00;99.90;;;;;;4155299;28;20073;-67
2022/10/17 01:09:00;;;;;;;4.45;3.50;;;17.00;99.90;;;;;;4136828;28;20099;-68
2022/10/17 01:11:34;;;;;;;6.13;3.90;;;16.90;99.90;;;;;;4136989;28;20034;-68
2022/10/17 01:13:50;;;;;;;5.18;3.38;;;16.90;99.90;;;;;;4127869;28;20037;-68
2022/10/17 01:16:05;;;;;;;5.82;2.78;;;16.90;99.90;;;;;;4138078;28;20029;-69
2022/10/17 01:18:31;;;;;;;7.03;3.20;;;17.00;99.90;;;;;;4119627;28;20092;-68
2022/10/17 01:20:50;;;;;;;5.72;3.40;;;17.00;99.90;;;;;;4122205;28;20113;-67
2022/10/17 01:23:23;;;;;;;5.30;2.97;;;17.00;99.90;;;;;;4121843;28;20035;-68
2022/10/17 01:25:56;;;;;;;5.97;3.38;;;17.00;99.90;;;;;;4119128;28;20139;-68
2022/10/17 01:28:30;;;;;;;3.25;2.95;;;17.00;99.90;;;;;;4132569;28;20058;-67
2022/10/17 01:31:07;;;;;;;3.47;3.13;;;17.00;99.90;;;;;;4118247;28;20038;-67
2022/10/17 01:33:21;;;;;;;4.28;3.20;;;17.00;99.90;;;;;;4123110;28;20456;-68
2022/10/17 01:35:41;;;;;;;6.60;3.40;;;17.00;99.90;;;;;;4121934;28;20035;-68
2022/10/17 01:38:03;;;;;;;4.80;3.28;;;17.00;99.90;;;;;;4123467;28;20038;-68
2022/10/17 01:40:18;;;;;;;4.25;3.25;;;16.90;99.90;;;;;;4134754;28;20038;-68
2022/10/17 01:43:00;;;;;;;4.50;3.15;;;17.00;99.90;;;;;;4121953;28;20530;-68
2022/10/17 01:45:12;;;;;;;4.32;3.00;;;17.00;99.90;;;;;;4107226;28;20034;-68
2022/10/17 01:47:18;;;;;;;4.68;3.25;;;17.00;99.90;;;;;;4124549;28;20026;-68
2022/10/17 01:49:23;;;;;;;3.90;2.97;;;17.00;99.90;;;;;;4126516;28;20117;-68
2022/10/17 01:51:29;;;;;;;6.28;2.97;;;17.00;99.90;;;;;;4121621;28;20560;-68
2022/10/17 01:53:36;;;;;;;4.80;3.47;;;16.90;99.90;;;;;;4120674;28;20046;-68
2022/10/17 01:55:40;;;;;;;4.55;3.55;;;16.90;99.90;;;;;;4126017;28;20368;-68
2022/10/17 01:57:49;;;;;;;5.15;3.50;;;16.90;99.90;;;;;;4125035;28;20030;-68
2022/10/17 01:59:53;;;;;;;8.70;3.75;;;16.90;99.90;;;;;;4118057;28;20026;-68
2022/10/17 02:01:56;;;;;;;5.15;4.03;;;16.90;99.90;;;;;;4150591;28;20029;-68
2022/10/17 02:03:59;;;;;;;6.13;3.45;;;16.90;99.90;;;;;;4151309;28;20492;-68
2022/10/17 02:06:00;;;;;;;8.35;3.50;;;16.90;99.90;;;;;;4166714;28;20456;-65
2022/10/17 02:08:01;;;;;;;6.28;3.67;;;16.90;99.90;;;;;;4150368;28;20038;-65
2022/10/17 02:10:07;;;;;;;4.50;3.50;;;16.90;99.90;;;;;;4150162;28;20084;-65
2022/10/17 02:12:58;;;;;;;4.78;3.40;;;16.90;99.90;;;;;;4154925;28;20029;-66
2022/10/17 02:15:24;;;;;;;6.85;3.78;;;16.90;99.90;;;;;;4127130;28;20118;-65
2022/10/17 02:17:41;;;;;;;5.75;3.40;;;16.90;99.90;;;;;;4138726;28;20505;-65
2022/10/17 02:20:02;;;;;;;4.18;3.10;;;16.90;99.90;;;;;;4150599;28;20032;-65
2022/10/17 02:22:26;;;;;;;6.07;4.07;;;16.90;99.90;;;;;;4152622;28;20037;-65
2022/10/17 02:24:50;;;;;;;5.95;3.38;;;16.90;99.90;;;;;;4141368;28;20037;-65
2022/10/17 02:27:05;;;;;;;5.75;3.53;;;16.90;99.90;;;;;;4151744;28;20029;-68
2022/10/17 02:29:14;;;;;;;4.47;3.25;;;16.90;99.90;;;;;;4138434;28;20049;-65
2022/10/17 02:31:29;;;;;;;6.10;3.35;;;16.90;99.90;;;;;;4149885;28;20461;-65
2022/10/17 02:33:36;;;;;;;4.72;3.40;;;16.90;99.90;;;;;;4136933;28;20044;-77
2022/10/17 02:35:41;;;;;;;4.75;3.05;;;16.80;99.90;;;;;;4135125;28;20038;-78
2022/10/17 02:37:44;;;;;;;7.70;4.03;;;16.90;99.90;;;;;;4140644;28;20026;-77
2022/10/17 02:39:47;;;;;;;3.80;3.10;;;16.90;99.90;;;;;;4139436;28;20379;-77
2022/10/17 02:41:49;;;;;;;5.03;3.20;;;16.90;99.90;;;;;;4133785;28;20045;-77
2022/10/17 02:43:52;;;;;;;4.32;2.97;;;16.90;99.90;;;;;;4143675;28;20399;-77
2022/10/17 02:45:53;;;;;;;5.70;3.60;;;16.90;99.90;;;;;;4142894;28;20049;-76
2022/10/17 02:48:34;;;;;;;4.57;3.05;;;16.90;99.90;;;;;;4143426;28;20057;-75
2022/10/17 02:51:04;;;;;;;4.25;3.22;;;16.90;99.90;;;;;;4135243;28;20046;-78
2022/10/17 02:53:11;;;;;;;7.95;3.83;;;16.90;99.90;;;;;;4147122;28;20566;-76
2022/10/17 02:55:16;;;;;;;5.53;3.65;;;16.90;99.90;;;;;;4141563;28;20158;-75
2022/10/17 02:57:37;;;;;;;6.38;3.47;;;16.90;99.90;;;;;;4143077;28;20069;-77
2022/10/17 02:59:40;;;;;;;8.70;3.67;;;16.90;99.90;;;;;;4125619;28;20034;-77
2022/10/17 03:01:41;;;;;;;5.00;3.40;;;16.90;99.90;;;;;;4121398;28;20098;-77
2022/10/17 03:03:41;;;;;;;5.13;3.85;;;16.90;99.90;;;;;;4124665;28;20485;-78
2022/10/17 03:05:42;;;;;;;7.43;3.85;;;16.90;99.90;;;;;;4120599;28;20499;-76
2022/10/17 03:07:43;;;;;;;6.72;3.65;;;16.80;99.90;;;;;;4134402;28;20594;-77
2022/10/17 03:09:43;;;;;;;4.00;3.40;;;16.80;99.90;;;;;;4120533;28;20522;-77
2022/10/17 03:11:44;;;;;;;4.47;3.45;;;16.80;99.90;;;;;;4126135;28;20388;-78
2022/10/17 03:13:44;;;;;;;4.93;3.85;;;16.80;99.90;;;;;;4123502;28;20404;-77
2022/10/17 03:15:45;;;;;;;8.40;3.35;;;16.80;99.90;;;;;;4122718;28;20502;-78
2022/10/17 03:17:45;;;;;;;5.47;3.55;;;16.80;99.90;;;;;;4111292;28;20046;-76
2022/10/17 03:19:46;;;;;;;4.80;3.60;;;16.80;99.90;;;;;;4124961;28;20035;-78
2022/10/17 03:21:47;;;;;;;6.53;3.92;;;16.80;99.90;;;;;;4123904;28;20031;-77
2022/10/17 03:23:47;;;;;;;4.63;3.53;;;16.80;99.90;;;;;;4138590;28;20030;-77
2022/10/17 03:25:48;;;;;;;4.68;3.53;;;16.80;99.90;;;;;;4119976;28;20507;-78
2022/10/17 03:27:48;;;;;;;3.70;3.28;;;16.80;99.90;;;;;;4141498;28;20040;-78
2022/10/17 03:29:49;;;;;;;3.88;3.30;;;16.80;99.90;;;;;;4106387;28;20106;-77
2022/10/17 03:31:50;;;;;;;4.72;3.28;;;16.80;99.90;;;;;;4135696;28;20053;-75
2022/10/17 03:33:50;;;;;;;6.22;3.47;;;16.80;99.90;;;;;;4129761;28;20125;-77
2022/10/17 03:35:51;;;;;;;7.30;3.50;;;16.80;99.90;;;;;;4126491;28;20688;-77
2022/10/17 03:37:54;;;;;;;4.63;3.70;;;16.80;99.90;;;;;;4123389;28;20377;-77
2022/10/17 03:39:54;;;;;;;7.38;3.97;;;16.80;99.90;;;;;;4122358;28;20056;-77
2022/10/17 03:41:55;;;;;;;5.55;3.80;;;16.80;99.90;;;;;;4118549;28;20117;-78
2022/10/17 03:43:55;;;;;;;3.88;3.08;;;16.80;99.90;;;;;;4138263;28;20041;-78
2022/10/17 03:45:57;;;;;;;4.40;3.42;;;16.80;99.90;;;;;;4121096;28;20046;-78
2022/10/17 03:47:58;;;;;;;7.68;3.55;;;16.80;99.90;;;;;;4119439;28;20038;-78
2022/10/17 03:49:59;;;;;;;5.38;3.38;;;16.80;99.90;;;;;;4120980;28;20348;-78
2022/10/17 03:51:59;;;;;;;5.32;3.60;;;16.80;99.90;;;;;;4132313;28;20034;-77
2022/10/17 03:54:00;;;;;;;4.60;3.00;;;16.80;99.90;;;;;;4117884;28;20038;-78
2022/10/17 03:56:30;;;;;;;5.18;3.42;;;16.90;99.90;;;;;;4118198;28;20061;-77
2022/10/17 03:58:31;;;;;;;6.90;3.03;;;16.80;99.90;;;;;;4123190;28;20031;-78
2022/10/17 04:00:31;;;;;;;5.47;3.30;;;16.80;99.90;;;;;;4138191;28;20786;-76
2022/10/17 04:02:34;;;;;;;5.72;3.40;;;16.80;99.90;;;;;;4120309;28;20034;-77
2022/10/17 04:04:34;;;;;;;4.45;3.35;;;16.80;99.90;;;;;;4115595;28;20131;-77
2022/10/17 04:06:36;;;;;;;9.30;3.60;;;16.80;99.90;;;;;;4119782;28;20078;-76
2022/10/17 04:08:37;;;;;;;4.22;3.47;;;16.80;99.90;;;;;;4127168;28;20114;-72
2022/10/17 04:10:38;;;;;;;4.65;3.30;;;16.90;99.90;;;;;;4122235;28;20066;-77
2022/10/17 04:12:38;;;;;;;5.47;3.35;;;16.80;99.90;;;;;;4119288;28;20049;-74
2022/10/17 04:14:39;;;;;;;4.22;3.40;;;16.90;99.90;;;;;;4119889;28;20053;-77
2022/10/17 04:16:40;;;;;;;4.22;3.30;;;16.80;99.90;;;;;;4118460;28;20136;-78
2022/10/17 04:18:41;;;;;;;5.85;3.30;;;16.80;99.90;;;;;;4125152;28;20102;-77
2022/10/17 04:20:42;;;;;;;4.93;3.38;;;16.80;99.90;;;;;;4120233;28;20031;-78
2022/10/17 04:22:42;;;;;;;4.22;3.50;;;16.80;99.90;;;;;;4140231;28;20054;-77
2022/10/17 04:24:43;;;;;;;6.55;3.78;;;16.80;99.90;;;;;;4121462;28;20370;-77
2022/10/17 04:26:44;;;;;;;4.55;3.50;;;16.90;99.90;;;;;;4122217;28;20361;-77
2022/10/17 04:28:44;;;;;;;4.05;3.65;;;16.80;99.90;;;;;;4138107;28;20030;-77
2022/10/17 04:30:45;;;;;;;7.05;3.88;;;16.80;99.90;;;;;;4123448;28;20392;-77
2022/10/17 04:32:46;;;;;;;4.97;3.13;;;16.80;99.90;;;;;;4120281;28;20058;-77
2022/10/17 04:34:50;;;;;;;4.50;3.38;;;16.80;99.90;;;;;;4135405;28;20391;-77
2022/10/17 04:36:51;;;;;;;5.60;3.55;;;16.80;99.90;;;;;;4130618;28;20026;-78
2022/10/17 04:38:51;;;;;;;5.68;3.45;;;16.80;99.90;;;;;;4128724;28;20089;-77
2022/10/17 04:40:52;;;;;;;5.25;3.45;;;16.80;99.90;;;;;;4141887;28;20394;-74
2022/10/17 04:42:53;;;;;;;5.68;3.42;;;16.80;99.90;;;;;;4147398;28;20406;-75
2022/10/17 04:44:53;;;;;;;8.88;3.92;;;16.80;99.90;;;;;;4136491;28;20089;-77
2022/10/17 04:46:54;;;;;;;5.05;3.40;;;16.80;99.90;;;;;;4141835;28;20500;-77
2022/10/17 04:48:55;;;;;;;4.88;3.80;;;16.80;99.90;;;;;;4138075;28;20509;-75
2022/10/17 04:51:00;;;;;;;5.88;3.65;;;16.80;99.90;;;;;;4121582;28;20101;-77
2022/10/17 04:53:01;;;;;;;4.15;3.17;;;16.80;99.90;;;;;;4123823;28;20129;-77
2022/10/17 04:55:03;;;;;;;5.22;3.50;;;16.80;99.90;;;;;;4125275;28;20069;-77
2022/10/17 04:57:04;;;;;;;5.90;3.75;;;16.80;99.90;;;;;;4134104;28;20594;-77
2022/10/17 04:59:04;;;;;;;7.25;3.05;;;16.80;99.90;;;;;;4126881;28;20030;-78
2022/10/17 05:01:07;;;;;;;4.45;3.20;;;16.80;99.90;;;;;;4122652;28;20046;-75
2022/10/17 05:03:08;;;;;;;4.95;3.92;;;16.80;99.90;;;;;;4121930;28;20045;-72
2022/10/17 05:05:09;;;;;;;4.32;3.05;;;16.90;99.90;;;;;;4139861;28;20042;-77
2022/10/17 05:07:09;;;;;;;6.30;3.55;;;16.90;99.90;;;;;;4122781;28;20035;-77
2022/10/17 05:09:10;;;;;;;4.60;3.55;;;16.90;99.90;;;;;;4121226;28;20054;-75
2022/10/17 05:11:22;;;;;;;4.57;3.25;;;16.90;99.90;;;;;;4120645;28;20038;-74
2022/10/17 05:13:23;;;;;;;6.10;3.40;;;16.90;99.90;;;;;;4124439;28;20050;-74
2022/10/17 05:15:24;;;;;;;3.70;3.20;;;16.90;99.90;;;;;;4123949;28;20731;-75
2022/10/17 05:17:24;;;;;;;5.35;3.30;;;16.90;99.90;;;;;;4124170;28;20081;-74
2022/10/17 05:19:25;;;;;;;3.22;2.92;;;16.90;99.90;;;;;;4122520;28;20034;-77
2022/10/17 05:21:27;;;;;;;5.47;3.28;;;16.90;99.90;;;;;;4123575;28;20992;-77
2022/10/17 05:23:28;;;;;;;;;;;16.90;99.90;;;;;;4122524;28;20492;-77
2022/10/17 05:25:29;;;;;;;6.10;3.10;;;17.00;99.90;;;;;;4124977;28;19918;-77
2022/10/17 05:27:29;;;;;;;3.63;3.00;;;17.00;99.90;;;;;;4123471;28;20789;-78
2022/10/17 05:29:30;;;;;;;5.00;3.60;;;16.90;99.90;;;;;;4138222;28;20692;-77
2022/10/17 05:31:31;;;;;;;6.32;3.13;;;16.90;99.90;;;;;;4137748;28;20030;-77
2022/10/17 05:33:32;;;;;;;3.70;3.20;;;16.90;99.90;;;;;;4129211;28;20456;-74
2022/10/17 05:35:33;;;;;;;4.75;3.10;;;16.90;99.90;;;;;;4124329;28;20433;-72
2022/10/17 05:37:33;;;;;;;5.80;3.20;;;16.90;99.90;;;;;;4125928;28;20034;-73
2022/10/17 05:39:34;;;;;;;5.72;3.47;;;16.90;99.90;;;;;;4139139;28;20033;-75
2022/10/17 05:41:35;;;;;;;5.20;3.30;;;16.90;99.90;;;;;;4132353;28;20045;-74
2022/10/17 05:43:35;;;;;;;4.95;3.45;;;17.00;99.90;;;;;;4122094;28;20046;-74
2022/10/17 05:45:36;;;;;;;9.85;3.63;;;16.90;99.90;;;;;;4121289;28;20062;-73
2022/10/17 05:47:36;;;;;;;5.10;3.10;;;17.00;99.90;;;;;;4122602;28;20383;-69
2022/10/17 05:49:37;;;;;;;4.97;3.42;;;16.90;99.90;;;;;;4123256;28;20093;-73
2022/10/17 05:51:37;;;;;;;3.40;2.72;;;16.90;99.90;;;;;;4121431;28;20072;-73
2022/10/17 05:53:40;;;;;;;7.63;4.05;;;17.00;99.90;;;;;;4129406;28;20042;-75
2022/10/17 05:55:41;;;;;;;7.68;3.90;;;17.00;99.90;;;;;;4136634;28;20132;-71
2022/10/17 05:57:41;;;;;;;4.25;3.58;;;17.00;99.90;;;;;;4124270;28;20430;-71
2022/10/17 05:59:42;;;;;;;5.03;3.60;;;16.90;99.90;;;;;;4122812;28;20391;-74
2022/10/17 06:01:42;;;;;;;8.93;3.63;;;16.90;99.90;;;;;;4122444;28;20442;-73
2022/10/17 06:03:43;;;;;;;6.35;3.78;;;16.90;99.90;;;;;;4126311;28;20600;-75
2022/10/17 06:05:43;;;;;;;5.40;3.00;;;16.90;99.90;;;;;;4120244;28;20090;-72
2022/10/17 06:07:44;;;;;;;5.72;3.50;;;16.90;99.90;;;;;;4132711;28;20467;-73
2022/10/17 06:09:45;;;;;;;4.63;3.55;;;17.00;99.90;;;;;;4140807;28;20056;-74
2022/10/17 06:11:45;;;;;;;4.32;3.03;;;16.90;99.90;;;;;;4122305;28;20049;-71
2022/10/17 06:13:46;;;;;;;6.53;3.45;;;16.90;99.90;;;;;;4119958;28;20038;-74
2022/10/17 06:15:46;;;;;;;6.22;3.35;;;16.90;99.90;;;;;;4122466;28;20115;-73
2022/10/17 06:17:47;;;;;;;8.30;4.03;;;16.90;99.90;;;;;;4122373;28;20037;-75
2022/10/17 06:19:47;;;;;;;5.30;3.38;;;17.00;99.90;;;;;;4137647;28;20054;-75
2022/10/17 06:21:48;;;;;;;7.55;4.03;;;17.00;99.90;;;;;;4124051;28;20112;-75
2022/10/17 06:23:49;;;;;;;5.25;3.33;;;17.00;99.90;;;;;;4122983;28;20030;-75
2022/10/17 06:25:49;;;;;;;3.95;3.22;;;17.00;99.90;;;;;;4121077;28;20034;-74
2022/10/17 06:27:50;;;;;;;6.15;3.75;;;17.00;99.90;;;;;;4122346;28;20570;-73
2022/10/17 06:29:51;;;;;;;7.30;4.22;;;16.90;99.90;;;;;;4119446;28;20221;-75
2022/10/17 06:31:51;;;;;;;4.90;3.15;;;16.90;99.90;;;;;;4121203;28;20073;-73
2022/10/17 06:33:52;;;;;;;7.43;3.70;;;17.00;99.90;;;;;;4123319;28;20403;-75
2022/10/17 06:35:54;;;;;;;4.68;2.90;;;17.00;99.90;;;;;;4122939;28;20423;-75
2022/10/17 06:37:55;;;;;;;7.25;4.43;;;17.00;99.90;;;;;;4121544;28;20064;-74
2022/10/17 06:39:55;;;;;;;8.23;3.80;;;17.00;99.90;;;;;;4137192;28;20038;-73
2022/10/17 06:41:56;;;;;;;9.02;3.78;;;17.00;99.90;;;;;;4122595;28;20034;-73
2022/10/17 06:43:57;;;;;;;7.85;3.67;;;17.00;99.90;;;;;;4122164;28;20169;-74
2022/10/17 06:45:57;;;;;;;8.35;3.90;;;17.00;99.90;;;;;;4121313;28;20038;-75
2022/10/17 06:47:58;;;;;;;5.57;3.63;;;17.00;99.90;;;;;;4122632;28;20142;-74
2022/10/17 06:49:58;;;;;;;5.80;3.92;;;17.00;99.90;;;;;;4122379;28;20043;-75
2022/10/17 06:51:59;;;;;;;5.90;4.05;;;17.00;99.90;;;;;;4135454;28;20459;-73
2022/10/17 06:54:00;;;;;;;7.38;3.80;;;17.00;99.90;;;;;;4121217;28;20363;-75
2022/10/17 06:56:03;;;;;;;8.60;4.15;;;17.10;99.90;;;;;;4124620;28;20093;-75
2022/10/17 06:58:03;;;;;;;5.72;3.70;;;17.10;99.90;;;;;;4123117;28;20039;-75
2022/10/17 07:00:05;;;;;;;5.50;3.47;;;17.10;99.90;;;;;;4137606;28;20068;-75
2022/10/17 07:02:05;;;;;;;6.65;4.07;;;17.10;99.90;;;;;;4137868;28;20255;-75
2022/10/17 07:04:06;;;;;;;5.18;3.55;;;17.10;99.90;;;;;;4120466;28;20066;-74
2022/10/17 07:06:07;;;;;;;5.57;3.17;;;17.20;99.90;;;;;;4120846;28;20487;-75
2022/10/17 07:08:08;;;;;;;6.72;4.07;;;17.20;99.90;;;;;;4125892;28;20496;-74
2022/10/17 07:10:08;;;;;;;7.53;3.50;;;17.20;99.90;;;;;;4122529;28;20076;-73
2022/10/17 07:12:11;;;;;;;6.68;3.50;;;17.20;99.90;;;;;;4138926;28;20503;-73
2022/10/17 07:14:12;;;;;;;5.45;3.38;;;17.20;99.90;;;;;;4120810;28;20097;-74
2022/10/17 07:16:14;;;;;;;12.45;4.13;;;17.30;99.90;;;;;;4122382;28;20423;-75
2022/10/17 07:18:14;;;;;;;5.78;3.45;;;17.30;99.90;;;;;;4137499;28;20072;-73
2022/10/17 07:20:15;;;;;;;5.45;3.38;;;17.40;99.90;;;;;;4120936;28;20121;-75
2022/10/17 07:22:16;;;;;;;5.30;3.47;;;17.40;99.90;;;;;;4138149;28;20577;-74
2022/10/17 07:24:16;;;;;;;5.03;3.65;;;17.40;99.90;;;;;;4121738;28;20034;-71
2022/10/17 07:26:18;;;;;;;5.65;3.35;;;17.50;99.90;;;;;;4117823;28;20035;-75
2022/10/17 07:28:18;;;;;;;5.53;3.38;;;17.50;99.90;;;;;;4121813;28;20026;-75
2022/10/17 07:30:19;;;;;;;5.10;3.55;;;17.60;99.90;;;;;;4121167;28;20038;-75
2022/10/17 07:32:20;;;;;;;5.70;4.03;;;17.60;99.90;;;;;;4123170;28;20030;-74
2022/10/17 07:34:20;;;;;;;5.55;3.75;;;17.70;99.90;;;;;;4136659;28;20518;-74
2022/10/17 07:36:21;;;;;;;6.03;3.70;;;17.70;99.90;;;;;;4122802;28;20487;-75
2022/10/17 07:38:22;;;;;;;4.85;3.05;;;17.80;99.90;;;;;;4138383;28;20118;-75
2022/10/17 07:40:22;;;;;;;6.72;3.10;;;17.80;99.90;;;;;;4123782;28;20034;-75
2022/10/17 07:42:23;;;;;;;5.43;3.00;;;17.80;99.90;;;;;;4124245;28;20400;-75
2022/10/17 07:44:23;;;;;;;5.35;3.70;;;17.90;99.90;;;;;;4124272;28;20046;-75
2022/10/17 07:46:24;;;;;;;5.03;3.78;;;17.90;99.90;;;;;;4129787;28;20100;-75
2022/10/17 07:48:25;;;;;;;9.63;3.50;;;17.90;99.90;;;;;;4105971;28;20105;-75
2022/10/17 07:50:25;;;;;;;5.65;3.58;;;18.00;99.90;;;;;;4122546;28;20042;-73
2022/10/17 07:52:26;;;;;;;6.95;3.63;;;18.10;99.90;;;;;;4122391;28;20038;-74
2022/10/17 07:54:27;;;;;;;5.07;3.40;;;18.10;99.90;;;;;;4129043;28;20089;-76
2022/10/17 07:56:28;;;;;;;6.43;3.47;;;18.30;99.90;;;;;;4105713;28;20027;-75
2022/10/17 07:58:30;;;;;;;4.43;2.75;;;18.50;99.90;;;;;;4137270;28;20057;-74
2022/10/17 08:00:30;;;;;;;6.43;3.30;;;18.70;99.90;;;;;;4121998;28;20034;-75
2022/10/17 08:02:31;;;;;;;6.30;3.20;;;18.90;99.90;;;;;;4123255;28;20165;-75
2022/10/17 08:04:32;;;;;;;5.78;3.05;;;19.10;99.90;;;;;;4122908;28;20038;-75
2022/10/17 08:06:33;;;;;;;6.75;3.10;;;19.40;99.90;;;;;;4138389;28;20038;-75
2022/10/17 08:08:34;;;;;;;4.70;2.72;;;19.50;99.90;;;;;;4121803;28;20569;-74
2022/10/17 08:10:35;;;;;;;3.55;2.42;;;19.70;99.90;;;;;;4122501;28;20138;-75
2022/10/17 08:12:36;;;;;;;5.05;2.85;;;19.90;99.90;;;;;;4123488;28;20130;-75
2022/10/17 08:14:38;;;;;;;7.68;3.30;;;20.00;99.90;;;;;;4122304;28;20050;-74
2022/10/17 08:16:39;;;;;;;4.18;2.55;;;20.20;99.90;;;;;;4123491;28;20424;-75
2022/10/17 08:18:41;;;;;;;4.03;2.65;;;20.30;99.90;;;;;;4122633;28;20053;-75
2022/10/17 08:20:42;;;;;;;6.57;2.05;;;20.40;99.90;;;;;;4121697;28;20084;-75
2022/10/17 08:22:49;;;;;;;7.00;2.28;;;20.60;99.90;;;;;;4123455;28;20500;-73
2022/10/17 08:24:50;;;;;;;5.07;2.60;;;20.80;99.90;;;;;;4122937;28;20026;-71
2022/10/17 08:26:52;;;;;;;7.35;2.70;;;20.80;99.90;;;;;;4121728;28;20034;-71
2022/10/17 08:28:52;;;;;;;5.53;2.67;;;20.90;99.90;;;;;;4122533;28;20117;-72
2022/10/17 08:31:01;;;;;;;6.85;2.50;;;20.90;99.90;;;;;;4140428;28;20054;-73
2022/10/17 08:33:02;;;;;;;4.43;2.20;;;21.00;99.90;;;;;;4126664;28;20062;-72
2022/10/17 08:35:02;;;;;;;5.82;2.92;;;21.10;99.90;;;;;;4125636;28;20645;-74
2022/10/17 08:37:03;;;;;;;3.42;2.35;;;21.10;99.90;;;;;;4125395;28;20034;-74
2022/10/17 08:39:03;;;;;;;5.82;2.33;;;21.10;99.90;;;;;;4125088;28;20046;-74
2022/10/17 08:41:21;;;;;;;4.55;2.45;;;21.10;99.90;;;;;;4126148;28;20043;-75
2022/10/17 08:43:29;;;;;;;4.68;2.45;;;21.20;99.90;;;;;;4125143;28;20054;-74
2022/10/17 08:45:35;;;;;;;6.35;2.50;;;21.20;99.90;;;;;;4125829;28;20090;-75
2022/10/17 08:47:40;;;;;;;3.85;2.28;;;21.20;99.90;;;;;;4123953;28;20042;-74
2022/10/17 08:49:56;;;;;;;5.47;2.63;;;21.30;99.90;;;;;;4126083;28;20054;-74
2022/10/17 08:52:13;;;;;;;6.57;2.70;;;21.30;99.90;;;;;;4128356;28;20519;-72
2022/10/17 08:54:23;;;;;;;4.25;2.30;;;21.20;99.90;;;;;;4125275;28;20053;-73
2022/10/17 08:56:28;;;;;;;4.10;2.33;;;21.10;99.90;;;;;;4139520;28;20076;-74
2022/10/17 08:58:31;;;;;;;7.13;3.15;;;21.10;99.90;;;;;;4125632;28;20046;-74
2022/10/17 09:00:32;;;;;;;4.80;2.75;;;21.00;99.90;;;;;;4120476;28;20645;-72
2022/10/17 09:03:15;;;;;;;3.47;2.70;;;21.00;99.90;;;;;;4118147;28;20038;-74
2022/10/17 09:05:22;;;;;;;6.82;2.70;;;20.90;99.90;;;;;;4138827;28;20033;-67
2022/10/17 09:07:34;;;;;;;5.65;2.65;;;20.90;99.90;;;;;;4158268;28;20045;-66
2022/10/17 09:09:41;;;;;;;6.63;2.60;;;20.90;99.90;;;;;;4136444;28;20045;-66
2022/10/17 09:11:55;;;;;;;6.28;3.08;;;20.90;99.90;;;;;;4149358;28;20092;-66
2022/10/17 09:14:07;;;;;;;5.65;2.80;;;20.90;99.90;;;;;;4137043;28;21541;-65
2022/10/17 09:16:31;;;;;;;6.00;3.25;;;20.90;99.90;;;;;;4136839;28;20034;-66
2022/10/17 09:18:39;;;;;;;4.90;2.63;;;20.90;99.90;;;;;;4134590;28;20049;-65
2022/10/17 09:20:52;;;;;;;5.03;2.10;;;20.90;99.90;;;;;;4138026;28;20040;-66
2022/10/17 09:23:17;;;;;;;3.45;2.33;;;20.90;99.90;;;;;;4139188;28;20073;-65
2022/10/17 09:25:19;;;;;;;4.90;2.40;;;20.90;99.90;;;;;;4134269;28;20030;-66
2022/10/17 09:27:24;;;;;;;4.03;2.35;;;20.90;99.90;;;;;;4140755;28;20022;-65
2022/10/17 09:29:25;;;;;;;5.57;2.60;;;20.80;99.90;;;;;;4142566;28;20030;-65
2022/10/17 09:31:34;;;;;;;4.72;2.30;;;20.80;99.90;;;;;;4140595;28;20056;-65
2022/10/17 09:33:43;;;;;;;5.25;2.60;;;20.70;99.90;;;;;;4140638;28;20050;-65
2022/10/17 09:35:45;;;;;;;4.03;2.58;;;20.70;99.90;;;;;;4141434;28;20037;-68
2022/10/17 09:37:48;;;;;;;4.97;2.58;;;20.70;99.90;;;;;;4150988;28;20052;-67
2022/10/17 09:39:48;;;;;;;6.45;2.88;;;20.60;99.90;;;;;;4130849;28;20041;-66
2022/10/17 09:41:54;;;;;;;3.35;2.55;;;20.60;99.90;;;;;;4129986;28;20406;-63
2022/10/17 09:43:56;;;;;;;4.32;2.38;;;20.50;99.90;;;;;;4135693;28;20038;-65
2022/10/17 09:46:29;;;;;;;5.70;2.80;;;20.50;99.90;;;;;;4140281;28;20129;-63
2022/10/17 09:48:41;;;;;;;5.05;2.28;;;20.40;99.90;;;;;;4097841;28;20058;-63
2022/10/17 09:50:45;;;;;;;3.83;2.45;;;20.40;99.90;;;;;;4123108;28;20451;-64
2022/10/17 09:52:48;;;;;;;3.47;2.72;;;20.40;99.90;;;;;;4119780;28;20115;-64
2022/10/17 09:54:52;;;;;;;4.38;2.40;;;20.40;99.90;;;;;;4145243;28;20034;-65
2022/10/17 09:57:05;;;;;;;4.28;2.05;;;20.30;99.90;;;;;;4137864;28;20043;-63
2022/10/17 09:59:09;;;;;;;3.10;2.30;;;20.30;99.90;;;;;;4136787;28;20038;-65
2022/10/17 10:01:30;;;;;;;5.45;2.72;;;20.30;99.90;;;;;;4137917;28;20800;-64
2022/10/17 10:03:30;;;;;;;5.25;2.65;;;20.30;99.90;;;;;;4137555;28;20045;-63
2022/10/17 10:05:31;;;;;;;5.93;2.30;;;20.20;99.90;;;;;;4152814;28;20406;-64
2022/10/17 10:07:37;;;;;;;5.60;3.00;;;20.30;99.90;;;;;;4140463;28;20482;-64
2022/10/17 10:09:38;;;;;;;6.25;2.80;;;20.20;99.90;;;;;;4138930;28;20038;-63
2022/10/17 10:11:51;;;;;;;5.25;2.65;;;20.30;99.90;;;;;;4138178;28;20034;-64
2022/10/17 10:13:52;;;;;;;4.50;2.53;;;20.20;99.90;;;;;;4140971;28;20050;-65
2022/10/17 10:15:52;;;;;;;3.67;2.75;;;20.20;99.90;;;;;;4154764;28;20034;-64
2022/10/17 10:17:53;;;;;;;5.60;2.28;;;20.20;99.90;;;;;;4139919;28;20109;-64
2022/10/17 10:19:53;;;;;;;5.40;2.60;;;20.20;99.90;;;;;;4140322;28;20030;-64
2022/10/17 10:22:03;;;;;;;4.68;2.53;;;20.20;99.90;;;;;;4140131;28;20038;-64
2022/10/17 10:24:12;;;;;;;5.70;2.65;;;20.20;99.90;;;;;;4140754;28;20136;-65
2022/10/17 10:26:25;;;;;;;4.28;2.45;;;20.20;99.90;;;;;;4139652;28;20037;-63
2022/10/17 10:28:31;;;;;;;7.68;2.90;;;20.20;99.90;;;;;;4137037;28;20058;-63
2022/10/17 10:30:32;;;;;;;5.63;2.67;;;20.20;99.90;;;;;;4135284;28;20064;-64
2022/10/17 10:32:35;;;;;;;3.72;2.45;;;20.20;99.90;;;;;;4140609;28;20041;-63
2022/10/17 10:34:42;;;;;;;4.22;2.58;;;20.20;99.90;;;;;;4140483;28;20487;-64
2022/10/17 10:36:56;;;;;;;4.97;2.75;;;20.20;99.90;;;;;;4141045;28;20495;-64
2022/10/17 10:38:58;;;;;;;5.53;2.33;;;20.20;99.90;;;;;;4138696;28;20113;-63
2022/10/17 10:41:08;;;;;;;4.10;2.53;;;20.20;99.90;;;;;;4137101;28;20140;-64
2022/10/17 10:43:22;;;;;;;5.97;2.75;;;20.10;99.90;;;;;;4143574;28;20030;-66
2022/10/17 10:45:40;;;;;;;3.88;2.70;;;20.20;99.90;;;;;;4138889;28;20045;-63
2022/10/17 10:47:56;;;;;;;3.65;2.30;;;20.20;99.90;;;;;;4140235;28;20033;-64
2022/10/17 10:50:35;;;;;;;3.95;2.78;;;20.10;99.90;;;;;;4139065;28;20450;-63